createdAt,value
2023-02-19T16:01:40.878Z,18.17
2023-02-19T16:02:19.660Z,18.63
2023-02-19T16:02:52.721Z,18.70
2023-02-19T16:03:27.647Z,19.20
2023-02-19T16:04:01.032Z,18.80
2023-02-19T16:04:36.239Z,17.20
2023-02-19T16:05:27.935Z,18.17
2023-02-19T16:06:10.662Z,18.40
2023-02-19T16:07:01.129Z,18.70
2023-02-19T16:07:33.840Z,19.10
2023-02-19T16:08:20.867Z,18.23
2023-02-19T16:08:53.137Z,18.30
2023-02-19T16:09:38.101Z,18.30
2023-02-19T16:10:25.810Z,18.63
2023-02-19T16:11:01.577Z,17.77
2023-02-19T16:11:40.145Z,18.57
2023-02-19T16:12:28.332Z,19.20
2023-02-19T16:13:03.162Z,19.23
2023-02-19T16:13:35.626Z,20.40
2023-02-19T16:14:24.052Z,19.97
2023-02-19T16:14:56.420Z,20.67
2023-02-19T16:15:31.761Z,20.50
2023-02-19T16:16:10.187Z,20.07
2023-02-19T16:16:46.522Z,20.93
2023-02-19T16:17:28.297Z,21.43
2023-02-19T16:18:05.481Z,21.20
2023-02-19T16:18:41.345Z,19.83
2023-02-19T16:19:14.446Z,20.77
2023-02-19T16:19:54.068Z,20.80
2023-02-19T16:20:43.296Z,21.97
2023-02-19T16:21:21.102Z,23.53
2023-02-19T16:22:00.547Z,21.23
2023-02-19T16:22:42.206Z,21.60
2023-02-19T16:23:21.358Z,22.10
2023-02-19T16:24:04.428Z,21.37
2023-02-19T16:24:46.974Z,21.50
2023-02-19T16:25:30.433Z,21.50
2023-02-19T16:26:03.966Z,21.00
2023-02-19T16:26:49.894Z,22.43
2023-02-19T16:27:35.344Z,20.43
2023-02-19T16:28:12.200Z,20.60
2023-02-19T16:28:45.286Z,20.80
2023-02-19T16:29:21.602Z,21.07
2023-02-19T16:29:54.357Z,21.50
2023-02-19T16:30:34.668Z,21.67
2023-02-19T16:31:14.321Z,21.07
2023-02-19T16:31:58.793Z,21.97
2023-02-19T16:32:31.666Z,22.37
2023-02-19T16:33:41.959Z,22.97
2023-02-19T16:34:32.377Z,21.17
2023-02-19T16:35:05.425Z,22.73
2023-02-19T16:35:42.366Z,21.43
2023-02-19T16:36:37.492Z,22.47
2023-02-19T16:37:44.676Z,22.73
2023-02-19T16:38:21.168Z,22.57
2023-02-19T16:39:03.706Z,27.77
2023-02-19T16:39:36.493Z,25.60
2023-02-19T16:40:09.319Z,26.20
2023-02-19T16:40:54.794Z,25.03
2023-02-19T16:41:27.703Z,29.10
2023-02-19T16:42:00.261Z,38.27
2023-02-19T16:42:32.884Z,88.50
2023-02-19T16:43:27.264Z,230.07
2023-02-19T16:44:02.715Z,74.40
2023-02-19T16:44:40.183Z,278.27
2023-02-19T16:45:13.742Z,156.73
2023-02-19T16:45:48.011Z,232.37
2023-02-19T16:46:23.066Z,105.13
2023-02-19T16:46:59.010Z,68.57
2023-02-19T16:47:41.825Z,50.27
2023-02-19T16:48:15.213Z,52.40
2023-02-19T16:48:48.322Z,54.93
2023-02-19T16:49:23.718Z,32.50
2023-02-19T16:49:59.144Z,35.53
2023-02-19T16:50:31.910Z,31.10
2023-02-19T16:51:07.301Z,24.17
2023-02-19T16:51:40.634Z,23.63
2023-02-19T16:52:16.520Z,24.47
2023-02-19T16:52:56.226Z,25.03
2023-02-19T16:53:32.883Z,25.80
2023-02-19T16:54:09.515Z,24.23
2023-02-19T16:54:41.869Z,24.73
2023-02-19T16:56:01.211Z,24.57
2023-02-19T16:56:34.106Z,24.80
2023-02-19T16:57:06.241Z,25.97
2023-02-19T16:57:38.200Z,24.83
2023-02-19T16:58:20.977Z,24.90
2023-02-19T16:58:53.263Z,23.47
2023-02-19T16:59:25.957Z,23.33
2023-02-19T16:59:58.276Z,23.57
2023-02-19T17:00:32.531Z,23.13
2023-02-19T17:01:06.785Z,23.83
2023-02-19T17:01:39.920Z,23.70
2023-02-19T17:02:19.996Z,23.50
2023-02-19T17:03:00.697Z,23.33
2023-02-19T17:03:33.801Z,23.73
2023-02-19T17:04:14.187Z,24.30
2023-02-19T17:04:48.647Z,25.87
2023-02-19T17:05:28.376Z,24.37
2023-02-19T17:06:01.255Z,24.53
2023-02-19T17:06:35.366Z,24.50
2023-02-19T17:07:09.780Z,24.17
2023-02-19T17:07:42.599Z,25.33
2023-02-19T17:08:34.186Z,24.50
2023-02-19T17:09:09.024Z,24.00
2023-02-19T17:09:41.740Z,24.30
2023-02-19T17:10:18.636Z,24.53
2023-02-19T17:10:50.620Z,24.93
2023-02-19T17:11:35.141Z,24.33
2023-02-19T17:12:13.042Z,24.90
2023-02-19T17:12:45.766Z,25.03
2023-02-19T17:13:24.385Z,24.87
2023-02-19T17:13:57.210Z,25.97
2023-02-19T17:14:30.786Z,25.93
2023-02-19T17:15:03.494Z,25.63
2023-02-19T17:15:36.181Z,25.50
2023-02-19T17:16:14.178Z,25.47
2023-02-19T17:16:47.559Z,25.60
2023-02-19T17:17:23.347Z,26.20
2023-02-19T17:17:56.082Z,24.93
2023-02-19T17:18:30.209Z,25.17
2023-02-19T17:19:08.889Z,25.63
2023-02-19T17:19:42.539Z,25.10
2023-02-19T17:20:24.118Z,24.00
2023-02-19T17:21:13.309Z,25.90
2023-02-19T17:21:47.667Z,25.07
2023-02-19T17:22:19.956Z,25.70
2023-02-19T17:22:52.784Z,26.63
2023-02-19T17:23:25.300Z,26.97
2023-02-19T17:24:01.527Z,25.50
2023-02-19T17:24:39.332Z,26.20
2023-02-19T17:25:12.172Z,25.77
2023-02-19T17:25:45.082Z,25.67
2023-02-19T17:26:21.149Z,25.43
2023-02-19T17:26:53.960Z,26.33
2023-02-19T17:27:27.724Z,26.43
2023-02-19T17:28:00.505Z,26.30
2023-02-19T17:28:33.371Z,27.30
2023-02-19T17:29:09.085Z,25.93
2023-02-19T17:29:42.151Z,26.10
2023-02-19T17:30:30.879Z,25.83
2023-02-19T17:31:06.991Z,32.60
2023-02-19T17:31:39.374Z,149.30
2023-02-19T17:32:11.625Z,207.80
2023-02-19T17:32:53.837Z,150.13
2023-02-19T17:33:25.937Z,36.00
2023-02-19T17:33:59.591Z,201.17
2023-02-19T17:34:32.752Z,56.23
2023-02-19T17:35:08.317Z,38.43
2023-02-19T17:35:42.527Z,37.33
2023-02-19T17:36:24.398Z,39.33
2023-02-19T17:36:59.623Z,36.23
2023-02-19T17:37:35.175Z,37.07
2023-02-19T17:38:10.103Z,55.97
2023-02-19T17:38:43.081Z,36.27
2023-02-19T17:39:21.297Z,30.77
2023-02-19T17:39:53.692Z,29.80
2023-02-19T17:40:33.716Z,28.77
2023-02-19T17:41:06.492Z,26.80
2023-02-19T17:41:39.229Z,26.90
2023-02-19T17:42:11.950Z,27.47
2023-02-19T17:42:44.857Z,26.60
2023-02-19T17:43:17.552Z,26.83
2023-02-19T17:43:54.180Z,27.93
2023-02-19T17:44:26.358Z,27.37
2023-02-19T17:45:00.244Z,26.57
2023-02-19T17:45:33.566Z,28.53
2023-02-19T17:46:06.512Z,27.10
2023-02-19T17:46:41.173Z,27.03
2023-02-19T17:47:13.993Z,26.57
2023-02-19T17:47:48.208Z,26.80
2023-02-19T17:48:21.812Z,29.77
2023-02-19T17:48:55.878Z,31.77
2023-02-19T17:49:28.562Z,32.83
2023-02-19T17:50:05.415Z,32.77
2023-02-19T17:50:37.960Z,31.87
2023-02-19T17:51:11.176Z,30.60
2023-02-19T17:51:45.213Z,31.60
2023-02-19T17:52:19.991Z,32.87
2023-02-19T17:52:52.825Z,35.87
2023-02-19T17:53:25.430Z,37.10
2023-02-19T17:53:58.153Z,34.10
2023-02-19T17:54:31.097Z,34.60
2023-02-19T17:55:05.604Z,34.27
2023-02-19T17:55:38.680Z,34.97
2023-02-19T17:56:18.624Z,36.13
2023-02-19T17:56:51.322Z,36.37
2023-02-19T17:57:24.143Z,36.53
2023-02-19T17:57:58.166Z,35.47
2023-02-19T17:58:31.182Z,36.47
2023-02-19T17:59:03.870Z,37.83
2023-02-19T17:59:36.991Z,38.07
2023-02-19T18:00:14.664Z,37.77
2023-02-19T18:00:47.675Z,36.20
2023-02-19T18:01:20.520Z,33.40
2023-02-19T18:01:53.304Z,34.37
2023-02-19T18:02:26.037Z,34.50
2023-02-19T18:02:59.220Z,34.03
2023-02-19T18:03:31.760Z,35.37
2023-02-19T18:04:05.002Z,33.43
2023-02-19T18:04:39.588Z,32.90
2023-02-19T18:05:17.258Z,33.43
2023-02-19T18:05:50.482Z,33.83
2023-02-19T18:06:23.149Z,35.00
2023-02-19T18:06:56.479Z,33.97
2023-02-19T18:07:28.794Z,32.90
2023-02-19T18:08:00.935Z,34.67
2023-02-19T18:08:33.856Z,35.93
2023-02-19T18:09:06.654Z,33.17
2023-02-19T18:09:41.544Z,33.93
2023-02-19T18:10:15.679Z,34.77
2023-02-19T18:10:48.634Z,35.43
2023-02-19T18:11:23.740Z,34.03
2023-02-19T18:11:56.471Z,33.63
2023-02-19T18:12:30.429Z,36.40
2023-02-19T18:13:03.241Z,33.70
2023-02-19T18:13:36.858Z,31.90
2023-02-19T18:14:09.482Z,32.70
2023-02-19T18:14:42.057Z,33.77
2023-02-19T18:15:26.778Z,33.77
2023-02-19T18:16:00.070Z,33.63
2023-02-19T18:16:34.194Z,34.90
2023-02-19T18:17:07.741Z,33.80
2023-02-19T18:17:41.586Z,33.73
2023-02-19T18:18:15.760Z,34.13
2023-02-19T18:18:49.709Z,33.43
2023-02-19T18:19:23.500Z,32.17
2023-02-19T18:19:56.589Z,33.30
2023-02-19T18:20:29.973Z,31.50
2023-02-19T18:21:06.979Z,32.80
2023-02-19T18:21:40.165Z,32.00
2023-02-19T18:22:12.764Z,33.17
2023-02-19T18:22:45.405Z,33.47
2023-02-19T18:23:17.865Z,33.10
2023-02-19T18:23:50.151Z,33.87
2023-02-19T18:24:23.481Z,33.50
2023-02-19T18:24:57.662Z,31.87
2023-02-19T18:25:33.413Z,32.00
2023-02-19T18:26:11.035Z,32.83
2023-02-19T18:26:43.761Z,32.40
2023-02-19T18:27:19.352Z,32.33
2023-02-19T18:27:52.729Z,35.30
2023-02-19T18:28:26.173Z,33.50
2023-02-19T18:29:01.671Z,33.30
2023-02-19T18:29:35.146Z,35.40
2023-02-19T18:30:08.942Z,33.67
2023-02-19T18:30:41.705Z,31.47
2023-02-19T18:31:14.909Z,31.17
2023-02-19T18:31:48.760Z,32.33
2023-02-19T18:32:23.617Z,33.03
2023-02-19T18:32:56.156Z,31.97
2023-02-19T18:33:28.939Z,32.60
2023-02-19T18:34:02.085Z,32.80
2023-02-19T18:34:35.873Z,33.23
2023-02-19T18:35:09.481Z,33.80
2023-02-19T18:35:42.794Z,34.90
2023-02-19T18:36:17.746Z,32.57
2023-02-19T18:36:51.351Z,32.13
2023-02-19T18:37:26.938Z,34.43
2023-02-19T18:38:01.927Z,40.77
2023-02-19T18:38:34.791Z,87.63
2023-02-19T18:39:06.950Z,47.93
2023-02-19T18:39:39.730Z,103.67
2023-02-19T18:40:13.056Z,64.40
2023-02-19T18:40:45.768Z,97.90
2023-02-19T18:41:21.394Z,118.77
2023-02-19T18:41:54.152Z,101.37
2023-02-19T18:42:27.476Z,146.40
2023-02-19T18:43:00.554Z,149.23
2023-02-19T18:43:33.661Z,85.30
2023-02-19T18:44:06.027Z,188.53
2023-02-19T18:44:39.424Z,109.67
2023-02-19T18:45:21.221Z,100.40
2023-02-19T18:45:54.930Z,58.27
2023-02-19T18:46:28.531Z,76.07
2023-02-19T18:47:01.678Z,116.20
2023-02-19T18:47:34.518Z,110.63
2023-02-19T18:48:07.322Z,123.47
2023-02-19T18:48:40.462Z,304.80
2023-02-19T18:49:15.128Z,240.53
2023-02-19T18:49:49.771Z,149.83
2023-02-19T18:50:22.608Z,41.03
2023-02-19T18:50:54.591Z,56.90
2023-02-19T18:51:27.150Z,45.47
2023-02-19T18:52:02.036Z,39.63
2023-02-19T18:52:34.978Z,47.37
2023-02-19T18:53:08.510Z,43.27
2023-02-19T18:53:43.739Z,39.87
2023-02-19T18:54:16.477Z,41.63
2023-02-19T18:54:51.205Z,38.07
2023-02-19T18:55:24.033Z,36.43
2023-02-19T18:55:58.071Z,34.80
2023-02-19T18:56:31.670Z,34.00
2023-02-19T18:57:05.244Z,33.17
2023-02-19T18:57:38.250Z,34.13
2023-02-19T18:58:14.060Z,32.77
2023-02-19T18:58:48.222Z,33.07
2023-02-19T18:59:22.241Z,34.27
2023-02-19T18:59:54.841Z,33.90
2023-02-19T19:00:28.792Z,42.10
2023-02-19T19:01:01.534Z,54.43
2023-02-19T19:01:34.294Z,39.40
2023-02-19T19:02:09.991Z,41.47
2023-02-19T19:02:49.074Z,39.40
2023-02-19T19:03:22.425Z,35.63
2023-02-19T19:03:55.242Z,34.73
2023-02-19T19:04:29.615Z,37.20
2023-02-19T19:05:02.613Z,35.00
2023-02-19T19:05:35.431Z,36.00
2023-02-19T19:06:09.471Z,36.37
2023-02-19T19:06:44.749Z,34.63
2023-02-19T19:07:18.022Z,34.90
2023-02-19T19:07:55.676Z,36.03
2023-02-19T19:08:32.618Z,34.23
2023-02-19T19:09:06.671Z,35.50
2023-02-19T19:09:40.210Z,36.50
2023-02-19T19:10:14.327Z,34.43
2023-02-19T19:10:47.017Z,34.07
2023-02-19T19:11:22.624Z,33.77
2023-02-19T19:11:55.303Z,33.80
2023-02-19T19:12:28.396Z,33.77
2023-02-19T19:13:01.175Z,33.87
2023-02-19T19:13:34.107Z,47.53
2023-02-19T19:14:07.112Z,61.57
2023-02-19T19:14:39.721Z,39.73
2023-02-19T19:15:12.598Z,34.00
2023-02-19T19:15:50.825Z,33.13
2023-02-19T19:16:28.512Z,33.57
2023-02-19T19:17:01.154Z,32.63
2023-02-19T19:17:35.659Z,33.57
2023-02-19T19:18:09.680Z,34.20
2023-02-19T19:18:42.595Z,33.17
2023-02-19T19:19:16.236Z,33.37
2023-02-19T19:19:48.970Z,34.10
2023-02-19T19:20:26.018Z,34.33
2023-02-19T19:21:05.944Z,37.07
2023-02-19T19:21:41.197Z,34.60
2023-02-19T19:22:13.950Z,34.00
2023-02-19T19:22:49.005Z,33.60
2023-02-19T19:23:22.085Z,34.80
2023-02-19T19:23:54.882Z,34.40
2023-02-19T19:24:30.706Z,32.47
2023-02-19T19:25:04.999Z,34.13
2023-02-19T19:25:38.465Z,34.03
2023-02-19T19:26:11.364Z,38.07
2023-02-19T19:26:46.498Z,46.87
2023-02-19T19:27:21.408Z,45.13
2023-02-19T19:27:57.143Z,40.00
2023-02-19T19:28:31.371Z,39.40
2023-02-19T19:29:05.025Z,57.33
2023-02-19T19:29:37.640Z,51.27
2023-02-19T19:30:10.549Z,52.13
2023-02-19T19:30:43.661Z,43.47
2023-02-19T19:31:18.525Z,36.17
2023-02-19T19:31:51.243Z,34.57
2023-02-19T19:32:26.365Z,34.77
2023-02-19T19:32:59.106Z,34.87
2023-02-19T19:33:32.063Z,34.07
2023-02-19T19:34:06.432Z,34.80
2023-02-19T19:34:39.387Z,33.83
2023-02-19T19:35:12.159Z,33.43
2023-02-19T19:35:45.727Z,33.63
2023-02-19T19:36:24.027Z,32.50
2023-02-19T19:36:57.933Z,31.17
2023-02-19T19:37:30.776Z,34.97
2023-02-19T19:38:03.373Z,57.67
2023-02-19T19:38:36.186Z,120.03
2023-02-19T19:39:10.272Z,151.00
2023-02-19T19:39:44.367Z,231.50
2023-02-19T19:40:25.072Z,256.07
2023-02-19T19:40:57.945Z,114.43
2023-02-19T19:41:31.024Z,346.50
2023-02-19T19:42:11.736Z,351.13
2023-02-19T19:42:44.692Z,97.73
2023-02-19T19:43:18.869Z,42.20
2023-02-19T19:43:51.962Z,68.10
2023-02-19T19:44:25.910Z,52.83
2023-02-19T19:44:59.065Z,63.80
2023-02-19T19:45:31.981Z,42.13
2023-02-19T19:46:05.186Z,39.60
2023-02-19T19:46:45.250Z,37.67
2023-02-19T19:47:18.517Z,38.20
2023-02-19T19:47:51.096Z,35.93
2023-02-19T19:48:24.901Z,35.27
2023-02-19T19:49:07.816Z,34.50
2023-02-19T19:49:41.709Z,32.90
2023-02-19T19:50:14.629Z,32.77
2023-02-19T19:50:47.225Z,61.57
2023-02-19T19:51:22.103Z,67.33
2023-02-19T19:51:56.580Z,51.00
2023-02-19T19:52:31.100Z,41.47
2023-02-19T19:53:06.887Z,36.93
2023-02-19T19:53:39.793Z,30.47
2023-02-19T19:54:13.425Z,29.70
2023-02-19T19:54:45.999Z,32.17
2023-02-19T19:55:22.026Z,40.27
2023-02-19T19:55:54.680Z,34.80
2023-02-19T19:56:32.786Z,28.20
2023-02-19T19:57:04.991Z,30.40
2023-02-19T19:57:40.835Z,29.47
2023-02-19T19:58:15.155Z,31.37
2023-02-19T19:58:48.398Z,28.83
2023-02-19T19:59:23.701Z,29.60
2023-02-19T19:59:57.348Z,28.60
2023-02-19T20:00:30.205Z,27.43
2023-02-19T20:01:03.822Z,27.87
2023-02-19T20:01:36.832Z,28.57
2023-02-19T20:02:12.888Z,25.33
2023-02-19T20:02:47.240Z,24.63
2023-02-19T20:03:21.798Z,25.90
2023-02-19T20:03:54.694Z,25.43
2023-02-19T20:04:28.452Z,27.77
2023-02-19T20:05:01.814Z,26.93
2023-02-19T20:05:34.701Z,25.93
2023-02-19T20:06:07.580Z,33.47
2023-02-19T20:06:40.188Z,45.53
2023-02-19T20:07:13.644Z,60.10
2023-02-19T20:07:47.536Z,32.27
2023-02-19T20:08:20.564Z,27.27
2023-02-19T20:08:54.299Z,16.37
2023-02-19T20:09:29.648Z,12.60
2023-02-19T20:10:02.259Z,10.83
2023-02-19T20:10:35.990Z,9.47
2023-02-19T20:11:08.669Z,8.10
2023-02-19T20:11:49.081Z,6.70
2023-02-19T20:12:21.762Z,6.27
2023-02-19T20:12:54.217Z,7.00
2023-02-19T20:13:29.349Z,6.53
2023-02-19T20:14:06.162Z,6.73
2023-02-19T20:14:41.588Z,13.27
2023-02-19T20:15:14.795Z,18.57
2023-02-19T20:15:47.657Z,30.37
2023-02-19T20:16:29.775Z,31.97
2023-02-19T20:17:05.700Z,85.67
2023-02-19T20:17:40.203Z,63.07
2023-02-19T20:18:15.375Z,31.30
2023-02-19T20:18:50.757Z,64.30
2023-02-19T20:19:24.510Z,111.97
2023-02-19T20:19:58.391Z,62.97
2023-02-19T20:20:31.699Z,45.63
2023-02-19T20:21:05.684Z,49.97
2023-02-19T20:21:38.514Z,40.63
2023-02-19T20:22:13.629Z,17.57
2023-02-19T20:22:45.977Z,33.00
2023-02-19T20:23:18.645Z,20.47
2023-02-19T20:23:51.410Z,20.73
2023-02-19T20:24:29.085Z,8.33
2023-02-19T20:25:03.769Z,7.23
2023-02-19T20:25:37.325Z,7.27
2023-02-19T20:26:10.330Z,5.83
2023-02-19T20:26:43.295Z,4.80
2023-02-19T20:27:15.842Z,3.03
2023-02-19T20:27:50.078Z,2.80
2023-02-19T20:28:22.774Z,2.33
2023-02-19T20:28:57.717Z,2.20
2023-02-19T20:29:33.258Z,2.00
2023-02-19T20:30:06.910Z,1.63
2023-02-19T20:30:40.369Z,1.60
2023-02-19T20:31:15.970Z,1.57
2023-02-19T20:31:53.298Z,1.47
2023-02-19T20:32:26.368Z,1.43
2023-02-19T20:33:02.681Z,1.17
2023-02-19T20:33:36.890Z,1.07
2023-02-19T20:34:09.292Z,1.10
2023-02-19T20:34:42.223Z,1.00
2023-02-19T20:35:16.165Z,1.23
2023-02-19T20:35:48.804Z,1.20
2023-02-19T20:36:21.779Z,1.30
2023-02-19T20:36:55.098Z,1.23
2023-02-19T20:37:29.231Z,2.20
2023-02-19T20:38:03.661Z,1.57
2023-02-19T20:38:36.490Z,1.10
2023-02-19T20:39:10.101Z,1.07
2023-02-19T20:39:45.029Z,1.07
2023-02-19T20:40:19.005Z,4.23
2023-02-19T20:40:51.760Z,8.00
2023-02-19T20:41:25.009Z,4.70
2023-02-19T20:42:00.326Z,2.83
2023-02-19T20:42:32.911Z,2.33
2023-02-19T20:43:05.632Z,3.13
2023-02-19T20:43:38.248Z,1.93
2023-02-19T20:45:00.830Z,1.50
2023-02-19T20:45:34.914Z,1.27
2023-02-19T20:46:09.246Z,1.07
2023-02-19T20:46:47.005Z,1.47
2023-02-19T20:47:22.772Z,1.10
2023-02-19T20:47:55.844Z,1.13
2023-02-19T20:48:33.602Z,1.43
2023-02-19T20:49:06.243Z,1.20
2023-02-19T20:49:38.777Z,1.00
2023-02-19T20:50:12.134Z,1.50
2023-02-19T20:50:45.471Z,1.47
2023-02-19T20:51:18.082Z,0.90
2023-02-19T20:52:01.479Z,1.07
2023-02-19T20:52:33.917Z,1.03
2023-02-19T20:53:06.559Z,0.73
2023-02-19T20:53:40.790Z,0.63
2023-02-19T20:54:17.586Z,0.90
2023-02-19T20:54:50.311Z,0.97
2023-02-19T20:55:24.304Z,1.00
2023-02-19T20:55:58.751Z,0.80
2023-02-19T20:56:31.025Z,0.87
2023-02-19T20:57:05.552Z,1.00
2023-02-19T20:57:38.946Z,0.93
2023-02-19T20:58:12.824Z,1.07
2023-02-19T20:58:45.193Z,1.27
2023-02-19T20:59:19.343Z,1.30
2023-02-19T20:59:51.516Z,1.17
2023-02-19T21:00:25.283Z,1.00
2023-02-19T21:00:57.763Z,1.30
2023-02-19T21:01:30.498Z,1.23
2023-02-19T21:02:04.994Z,1.37
2023-02-19T21:02:38.078Z,1.50
2023-02-19T21:03:12.166Z,1.27
2023-02-19T21:03:44.906Z,1.33
2023-02-19T21:04:20.132Z,1.47
2023-02-19T21:04:52.661Z,1.53
2023-02-19T21:05:25.326Z,1.47
2023-02-19T21:05:57.492Z,1.53
2023-02-19T21:06:29.901Z,1.60
2023-02-19T21:07:02.422Z,1.93
2023-02-19T21:07:36.073Z,1.73
2023-02-19T21:08:08.645Z,1.57
2023-02-19T21:08:41.192Z,2.00
2023-02-19T21:09:13.904Z,1.73
2023-02-19T21:09:46.414Z,1.63
2023-02-19T21:10:19.125Z,1.77
2023-02-19T21:10:51.718Z,1.93
2023-02-19T21:11:24.410Z,1.73
2023-02-19T21:11:57.183Z,1.37
2023-02-19T21:12:29.301Z,1.87
2023-02-19T21:13:01.894Z,17.50
2023-02-19T21:13:35.670Z,14.93
2023-02-19T21:14:08.384Z,21.37
2023-02-19T21:14:42.017Z,22.93
2023-02-19T21:15:14.922Z,49.97
2023-02-19T21:15:46.828Z,34.10
2023-02-19T21:16:19.451Z,28.50
2023-02-19T21:16:52.167Z,39.60
2023-02-19T21:17:24.939Z,36.83
2023-02-19T21:17:57.743Z,33.70
2023-02-19T21:18:30.183Z,69.70
2023-02-19T21:19:02.761Z,118.37
2023-02-19T21:19:35.365Z,44.70
2023-02-19T21:20:08.795Z,25.07
2023-02-19T21:20:42.328Z,37.90
2023-02-19T21:21:19.057Z,190.70
2023-02-19T21:21:51.282Z,46.20
2023-02-19T21:22:23.481Z,68.40
2023-02-19T21:22:55.771Z,106.40
2023-02-19T21:23:29.394Z,39.00
2023-02-19T21:24:03.798Z,20.07
2023-02-19T21:24:36.169Z,22.57
2023-02-19T21:25:08.516Z,18.07
2023-02-19T21:25:40.459Z,19.83
2023-02-19T21:26:12.843Z,9.17
2023-02-19T21:26:47.088Z,7.97
2023-02-19T21:27:20.316Z,4.47
2023-02-19T21:27:52.244Z,2.43
2023-02-19T21:28:25.015Z,2.20
2023-02-19T21:28:57.423Z,2.23
2023-02-19T21:29:29.524Z,2.00
2023-02-19T21:30:02.268Z,1.77
2023-02-19T21:30:34.633Z,1.30
2023-02-19T21:31:07.137Z,1.27
2023-02-19T21:31:50.727Z,1.63
2023-02-19T21:32:22.854Z,1.40
2023-02-19T21:32:54.795Z,1.20
2023-02-19T21:33:27.953Z,1.30
2023-02-19T21:34:00.330Z,1.53
2023-02-19T21:34:32.481Z,1.57
2023-02-19T21:35:04.914Z,1.47
2023-02-19T21:35:37.145Z,1.23
2023-02-19T21:36:09.518Z,1.00
2023-02-19T21:36:41.461Z,0.93
2023-02-19T21:37:13.608Z,1.17
2023-02-19T21:37:45.728Z,1.17
2023-02-19T21:38:17.815Z,0.87
2023-02-19T21:38:50.230Z,0.87
2023-02-19T21:39:24.655Z,1.17
2023-02-19T21:39:56.692Z,1.20
2023-02-19T21:40:30.354Z,1.00
2023-02-19T21:41:07.001Z,0.93
2023-02-19T21:41:39.628Z,1.07
2023-02-19T21:42:11.408Z,1.20
2023-02-19T21:42:43.332Z,0.93
2023-02-19T21:43:15.374Z,0.93
2023-02-19T21:43:47.394Z,1.10
2023-02-19T21:44:21.209Z,1.10
2023-02-19T21:44:52.983Z,1.20
2023-02-19T21:45:24.994Z,1.10
2023-02-19T21:45:57.519Z,1.23
2023-02-19T21:46:29.686Z,1.20
2023-02-19T21:47:01.979Z,1.17
2023-02-19T21:47:35.905Z,1.10
2023-02-19T21:48:08.530Z,1.07
2023-02-19T21:48:40.211Z,1.27
2023-02-19T21:49:12.889Z,1.33
2023-02-19T21:49:45.098Z,1.33
2023-02-19T21:50:17.083Z,1.33
2023-02-19T21:50:49.242Z,1.33
2023-02-19T21:51:27.849Z,1.17
2023-02-19T21:52:00.230Z,1.07
2023-02-19T21:52:32.978Z,1.03
2023-02-19T21:53:05.703Z,1.27
2023-02-19T21:53:37.513Z,1.27
2023-02-19T21:54:18.326Z,1.27
2023-02-19T21:54:50.120Z,1.17
2023-02-19T21:55:21.940Z,1.17
2023-02-19T21:55:58.782Z,1.07
2023-02-19T21:56:44.395Z,1.17
2023-02-19T21:57:16.200Z,1.20
2023-02-19T21:57:47.924Z,0.93
2023-02-19T21:58:19.762Z,1.03
2023-02-19T21:58:51.815Z,1.03
2023-02-19T21:59:23.721Z,1.17
2023-02-19T21:59:55.838Z,1.30
2023-02-19T22:00:27.708Z,1.27
2023-02-19T22:00:59.621Z,1.23
2023-02-19T22:01:38.683Z,1.27
2023-02-19T22:02:10.672Z,1.10
2023-02-19T22:02:43.412Z,1.13
2023-02-19T22:03:16.514Z,1.33
2023-02-19T22:03:48.713Z,1.20
2023-02-19T22:04:21.952Z,1.37
2023-02-19T22:04:55.657Z,1.30
2023-02-19T22:05:27.496Z,0.97
2023-02-19T22:06:02.448Z,0.97
2023-02-19T22:06:35.054Z,1.10
2023-02-19T22:07:06.957Z,1.33
2023-02-19T22:07:39.014Z,1.27
2023-02-19T22:08:10.976Z,1.70
2023-02-19T22:08:44.449Z,1.30
2023-02-19T22:09:16.509Z,1.33
2023-02-19T22:09:49.688Z,1.70
2023-02-19T22:10:21.647Z,1.40
2023-02-19T22:10:53.318Z,1.23
2023-02-19T22:11:25.216Z,1.27
2023-02-19T22:11:56.879Z,1.27
2023-02-19T22:12:28.617Z,1.30
2023-02-19T22:13:00.359Z,1.40
2023-02-19T22:13:32.060Z,1.07
2023-02-19T22:14:04.114Z,1.27
2023-02-19T22:14:35.817Z,1.43
2023-02-19T22:15:07.910Z,1.40
2023-02-19T22:15:39.607Z,1.50
2023-02-19T22:16:11.599Z,1.53
2023-02-19T22:16:43.562Z,1.43
2023-02-19T22:17:15.449Z,1.33
2023-02-19T22:17:47.233Z,1.20
2023-02-19T22:18:18.901Z,1.03
2023-02-19T22:18:53.497Z,1.30
2023-02-19T22:19:25.182Z,1.30
2023-02-19T22:19:56.866Z,1.33
2023-02-19T22:20:28.535Z,1.33
2023-02-19T22:21:00.372Z,1.30
2023-02-19T22:21:34.981Z,1.27
2023-02-19T22:22:08.077Z,1.37
2023-02-19T22:22:40.866Z,1.47
2023-02-19T22:23:12.701Z,1.27
2023-02-19T22:23:46.233Z,1.20
2023-02-19T22:24:20.862Z,1.23
2023-02-19T22:24:53.085Z,1.20
2023-02-19T22:25:24.761Z,1.30
2023-02-19T22:25:56.501Z,1.37
2023-02-19T22:26:32.364Z,1.73
2023-02-19T22:27:04.348Z,1.47
2023-02-19T22:27:36.116Z,1.37
2023-02-19T22:28:07.925Z,1.33
2023-02-19T22:28:39.651Z,1.17
2023-02-19T22:29:14.434Z,1.23
2023-02-19T22:29:46.116Z,1.47
2023-02-19T22:30:18.135Z,1.33
2023-02-19T22:30:49.876Z,1.13
2023-02-19T22:31:23.946Z,1.00
2023-02-19T22:31:56.097Z,1.17
2023-02-19T22:32:27.966Z,1.47
2023-02-19T22:32:59.953Z,1.60
2023-02-19T22:33:31.653Z,1.33
2023-02-19T22:34:04.032Z,1.27
2023-02-19T22:34:40.328Z,1.27
2023-02-19T22:35:12.939Z,1.50
2023-02-19T22:35:45.460Z,1.47
2023-02-19T22:36:24.195Z,1.50
2023-02-19T22:36:55.873Z,1.63
2023-02-19T22:37:28.125Z,1.60
2023-02-19T22:37:59.795Z,1.63
2023-02-19T22:38:31.507Z,1.90
2023-02-19T22:39:05.010Z,1.77
2023-02-19T22:39:36.695Z,1.70
2023-02-19T22:40:08.548Z,1.43
2023-02-19T22:40:40.318Z,1.57
2023-02-19T22:41:12.170Z,1.87
2023-02-19T22:41:44.219Z,1.77
2023-02-19T22:42:16.650Z,1.60
2023-02-19T22:42:48.364Z,1.67
2023-02-19T22:43:20.023Z,1.60
2023-02-19T22:43:55.044Z,1.47
2023-02-19T22:44:26.818Z,1.63
2023-02-19T22:44:58.665Z,1.93
2023-02-19T22:45:30.431Z,1.87
2023-02-19T22:46:02.458Z,1.70
2023-02-19T22:46:34.175Z,1.57
2023-02-19T22:47:05.887Z,2.07
2023-02-19T22:47:37.961Z,1.93
2023-02-19T22:48:10.527Z,1.93
2023-02-19T22:48:43.538Z,2.20
2023-02-19T22:49:15.481Z,1.87
2023-02-19T22:49:47.237Z,1.70
2023-02-19T22:50:22.567Z,1.87
2023-02-19T22:50:55.026Z,1.87
2023-02-19T22:51:26.764Z,1.80
2023-02-19T22:52:03.324Z,1.83
2023-02-19T22:52:35.024Z,1.80
2023-02-19T22:53:06.710Z,1.93
2023-02-19T22:53:42.865Z,2.17
2023-02-19T22:54:15.772Z,1.90
2023-02-19T22:54:47.501Z,1.67
2023-02-19T22:55:19.338Z,1.90
2023-02-19T22:55:51.632Z,2.20
2023-02-19T22:56:26.189Z,1.90
2023-02-19T22:56:57.876Z,1.97
2023-02-19T22:57:29.540Z,1.93
2023-02-19T22:58:01.286Z,1.83
2023-02-19T22:58:32.989Z,2.07
2023-02-19T22:59:04.712Z,2.00
2023-02-19T22:59:36.389Z,2.00
2023-02-19T23:00:09.389Z,1.53
2023-02-19T23:00:41.224Z,2.10
2023-02-19T23:01:14.882Z,1.97
2023-02-19T23:01:46.691Z,1.70
2023-02-19T23:02:18.408Z,2.07
2023-02-19T23:02:51.056Z,1.80
2023-02-19T23:03:22.779Z,2.00
2023-02-19T23:03:59.346Z,2.10
2023-02-19T23:04:31.406Z,2.30
2023-02-19T23:05:03.123Z,2.03
2023-02-19T23:05:34.823Z,2.07
2023-02-19T23:06:06.503Z,1.87
2023-02-19T23:06:38.250Z,2.13
2023-02-19T23:07:10.111Z,1.87
2023-02-19T23:07:47.906Z,2.27
2023-02-19T23:08:19.692Z,2.13
2023-02-19T23:08:52.864Z,2.13
2023-02-19T23:09:27.243Z,2.07
2023-02-19T23:09:58.945Z,1.90
2023-02-19T23:10:30.646Z,2.37
2023-02-19T23:11:02.356Z,2.53
2023-02-19T23:11:37.324Z,3.77
2023-02-19T23:12:11.670Z,3.57
2023-02-19T23:12:43.472Z,3.00
2023-02-19T23:13:15.299Z,2.77
2023-02-19T23:13:47.003Z,2.17
2023-02-19T23:14:21.144Z,2.10
2023-02-19T23:14:52.897Z,2.10
2023-02-19T23:15:24.675Z,2.30
2023-02-19T23:15:56.469Z,2.33
2023-02-19T23:16:28.689Z,2.33
2023-02-19T23:17:00.823Z,2.60
2023-02-19T23:17:33.091Z,2.60
2023-02-19T23:18:06.259Z,2.23
2023-02-19T23:18:37.931Z,1.93
2023-02-19T23:19:13.101Z,1.83
2023-02-19T23:19:44.852Z,2.27
2023-02-19T23:20:16.973Z,2.50
2023-02-19T23:20:48.678Z,2.13
2023-02-19T23:21:21.640Z,2.17
2023-02-19T23:21:53.912Z,2.17
2023-02-19T23:22:25.598Z,2.23
2023-02-19T23:22:57.767Z,2.03
2023-02-19T23:23:29.519Z,2.17
2023-02-19T23:24:01.311Z,2.30
2023-02-19T23:24:33.043Z,2.20
2023-02-19T23:25:04.887Z,2.17
2023-02-19T23:25:36.660Z,2.43
2023-02-19T23:26:08.483Z,2.57
2023-02-19T23:26:48.182Z,2.23
2023-02-19T23:27:20.187Z,2.03
2023-02-19T23:27:52.834Z,2.20
2023-02-19T23:28:24.593Z,2.20
2023-02-19T23:28:56.331Z,2.13
2023-02-19T23:29:29.715Z,2.43